Time;durP1;ratioP1;P1;durP2;ratioP2;P2;SDS_P1;SDS_P2;PMS_P1;PMS_P2;Temp;Humidity;BMP_temperature;BMP_pressure;BME280_temperature;BME280_humidity;BME280_pressure;Samples;Min_cycle;Max_cycle;Signal;HPM_P1;HPM_P2
2023/02/07 00:02:25;;;;;;;228.50;90.50;;;;;;;-8.16;91.21;101397.37;273183;1257;22317;-81
2023/02/07 00:08:28;;;;;;;250.00;93.70;;;;;;;-8.30;90.80;101391.87;269332;1260;22614;-81
2023/02/07 00:14:29;;;;;;;221.80;85.90;;;;;;;-8.44;90.86;101398.60;272762;1259;22237;-81
2023/02/07 00:20:31;;;;;;;196.20;77.10;;;;;;;-8.50;91.20;101404.08;273330;1259;22309;-82
2023/02/07 00:26:33;;;;;;;181.00;65.80;;;;;;;-8.53;91.07;101409.45;273314;1269;22333;-81
2023/02/07 00:32:36;;;;;;;163.10;62.20;;;;;;;-8.56;91.37;101403.45;273290;1258;22339;-81
2023/02/07 00:38:38;;;;;;;175.50;62.40;;;;;;;-8.57;91.31;101399.04;272846;1259;23357;-81
2023/02/07 00:44:48;;;;;;;176.70;66.70;;;;;;;-8.56;91.34;101394.55;270513;1269;22575;-81
2023/02/07 00:50:50;;;;;;;181.60;69.50;;;;;;;-8.59;91.20;101376.59;269043;1272;22803;-83
2023/02/07 00:56:52;;;;;;;191.80;70.10;;;;;;;-8.62;91.28;101367.40;269319;1256;23324;-81
2023/02/07 01:02:56;;;;;;;182.70;66.00;;;;;;;-8.75;90.80;101368.90;268990;1270;25863;-80
2023/02/07 01:08:58;;;;;;;189.90;70.70;;;;;;;-8.95;90.85;101363.02;270511;1260;24521;-82
2023/02/07 01:15:04;;;;;;;206.80;75.80;;;;;;;-9.08;90.65;101356.46;270062;1255;22592;-81
2023/02/07 01:21:13;;;;;;;222.40;81.60;;;;;;;-9.18;90.99;101348.58;269598;1259;22772;-81
2023/02/07 01:27:15;;;;;;;229.50;84.60;;;;;;;-9.21;91.01;101352.76;269408;1256;22524;-81
2023/02/07 01:33:17;;;;;;;231.80;85.70;;;;;;;-9.29;91.03;101357.95;272032;1270;22537;-82
2023/02/07 01:39:19;;;;;;;227.50;83.40;;;;;;;-9.27;91.44;101352.70;270241;1259;22529;-81
2023/02/07 01:45:34;;;;;;;233.20;82.30;;;;;;;-9.27;91.38;101347.39;270676;1259;22340;-82
2023/02/07 01:51:37;;;;;;;225.20;81.20;;;;;;;-9.36;90.94;101336.62;272377;1262;22460;-81
2023/02/07 01:57:39;;;;;;;220.20;79.40;;;;;;;-9.52;90.84;101333.91;271760;1271;23792;-81
2023/02/07 02:03:43;;;;;;;233.60;83.60;;;;;;;-9.48;91.52;101329.77;268949;1270;22842;-80
2023/02/07 02:09:45;;;;;;;243.60;88.00;;;;;;;-9.51;91.41;101328.27;269592;1262;22639;-80
2023/02/07 02:16:12;;;;;;;247.20;90.40;;;;;;;-9.48;91.82;101328.98;269761;1256;22557;-81
2023/02/07 02:22:26;;;;;;;234.20;85.10;;;;;;;-9.54;91.45;101337.63;272400;1270;22229;-81
2023/02/07 02:28:40;;;;;;;259.20;96.10;;;;;;;-9.58;91.51;101354.76;273278;1259;22263;-80
2023/02/07 02:34:57;;;;;;;261.10;93.40;;;;;;;-9.61;91.55;101368.63;273225;1256;22206;-81
2023/02/07 02:41:20;;;;;;;221.60;79.60;;;;;;;-9.67;91.09;101365.62;273232;1269;22427;-81
2023/02/07 02:47:23;;;;;;;226.00;84.00;;;;;;;-9.90;90.62;101350.92;272862;1259;23208;-81
2023/02/07 02:53:25;;;;;;;245.10;91.30;;;;;;;-9.95;91.40;101351.74;269933;1270;25421;-81
2023/02/07 03:00:07;;;;;;;241.40;92.10;;;;;;;-9.93;91.54;101356.39;272118;1270;22422;-80
2023/02/07 03:06:43;;;;;;;244.70;94.10;;;;;;;-9.82;92.13;101369.97;273239;1261;22189;-81
2023/02/07 03:12:51;;;;;;;247.50;84.20;;;;;;;-9.76;92.13;101372.98;273188;1261;22223;-81
2023/02/07 03:18:58;;;;;;;222.50;83.60;;;;;;;-9.76;92.09;101371.31;273377;1259;22250;-81
2023/02/07 03:25:00;;;;;;;215.70;81.00;;;;;;;-9.81;92.06;101370.55;273439;1272;22855;-81
2023/02/07 03:31:05;;;;;;;217.10;80.90;;;;;;;-9.76;92.62;101375.55;273075;1264;22343;-81
2023/02/07 03:37:22;;;;;;;234.70;83.50;;;;;;;-9.68;92.75;101382.61;271676;1256;22644;-81
2023/02/07 03:43:34;;;;;;;213.40;85.90;;;;;;;-9.61;92.89;101381.06;269123;1269;22578;-81
2023/02/07 03:49:36;;;;;;;224.10;82.30;;;;;;;-9.58;92.86;101376.89;269085;1269;22206;-81
2023/02/07 03:55:37;;;;;;;185.10;73.00;;;;;;;-9.54;93.27;101373.92;272630;1269;23720;-81
2023/02/07 04:01:42;;;;;;;175.40;61.60;;;;;;;-9.44;93.33;101381.38;271416;1257;22562;-80
2023/02/07 04:07:44;;;;;;;187.50;64.30;;;;;;;-9.33;93.52;101376.33;269495;1259;23509;-81
2023/02/07 04:13:45;;;;;;;193.30;71.00;;;;;;;-9.14;94.29;101376.16;269093;1271;23736;-81
2023/02/07 04:19:47;;;;;;;193.80;71.70;;;;;;;-9.01;94.26;101372.91;270781;1259;24535;-81
2023/02/07 04:25:49;;;;;;;179.70;63.60;;;;;;;-8.96;93.94;101379.20;270137;1259;22355;-82
2023/02/07 04:31:51;;;;;;;155.10;60.50;;;;;;;-8.96;93.91;101383.40;273173;1270;23032;-83
2023/02/07 04:37:53;;;;;;;167.80;64.10;;;;;;;-8.89;94.11;101374.89;269648;1269;22569;-81
2023/02/07 04:43:54;;;;;;;165.60;63.40;;;;;;;-8.79;94.17;101375.75;269590;1269;22572;-82
2023/02/07 04:49:56;;;;;;;161.40;61.80;;;;;;;-8.74;94.01;101377.81;270808;1270;22316;-82
2023/02/07 04:55:58;;;;;;;149.60;57.10;;;;;;;-8.72;94.06;101371.89;272106;1262;22561;-82
2023/02/07 05:02:00;;;;;;;159.20;56.50;;;;;;;-8.68;93.98;101374.56;273134;1270;22209;-81
2023/02/07 05:08:01;;;;;;;140.90;54.70;;;;;;;-8.70;93.78;101387.50;273239;1256;22191;-82
2023/02/07 05:14:03;;;;;;;156.70;57.90;;;;;;;-8.72;93.80;101385.52;273341;1270;32024;-82
2023/02/07 05:20:06;;;;;;;142.60;53.50;;;;;;;-8.68;94.05;101389.35;273397;1270;23471;-82
2023/02/07 05:26:08;;;;;;;152.80;54.10;;;;;;;-8.67;93.95;101397.04;272307;1270;22562;-81
2023/02/07 05:38:34;;;;;;;137.80;51.20;;;;;;;-8.59;94.01;101407.54;272070;1270;24345;-81
2023/02/07 05:44:45;;;;;;;134.20;53.70;;;;;;;-8.57;94.07;101400.23;269961;1259;22580;-81
2023/02/07 05:50:47;;;;;;;142.40;54.70;;;;;;;-8.53;93.99;101399.39;272338;1259;22537;-81
2023/02/07 05:56:49;;;;;;;156.00;55.90;;;;;;;-8.49;94.29;101395.00;271398;1259;22273;-82
2023/02/07 06:02:51;;;;;;;156.40;57.20;;;;;;;-8.41;94.51;101389.59;270311;1256;22533;-81
2023/02/07 06:09:00;;;;;;;154.20;59.80;;;;;;;-8.32;94.61;101391.73;270251;1269;22210;-81
2023/02/07 06:15:02;;;;;;;139.60;56.00;;;;;;;-8.29;94.66;101400.43;269494;1270;22328;-82
2023/02/07 06:21:05;;;;;;;156.70;65.10;;;;;;;-8.23;94.65;101408.26;270244;1259;22279;-82
2023/02/07 06:27:07;;;;;;;142.50;57.90;;;;;;;-8.13;94.61;101412.39;270760;1269;22554;-81
2023/02/07 06:33:09;;;;;;;168.10;63.80;;;;;;;-8.11;94.43;101415.79;270221;1269;22278;-81
2023/02/07 06:39:10;;;;;;;147.40;58.30;;;;;;;-8.01;94.82;101420.75;271442;1259;25284;-81
2023/02/07 06:45:12;;;;;;;169.30;64.60;;;;;;;-7.94;94.60;101423.12;269422;1272;22681;-82
2023/02/07 06:51:14;;;;;;;182.20;74.80;;;;;;;-7.92;94.58;101431.31;270879;1272;22590;-81
2023/02/07 06:57:15;;;;;;;192.10;74.80;;;;;;;-7.83;94.92;101429.84;273397;1269;22500;-82
2023/02/07 07:03:18;;;;;;;181.50;66.30;;;;;;;-7.70;95.09;101440.02;270471;1262;22582;-81
2023/02/07 07:09:31;;;;;;;226.30;81.80;;;;;;;-7.60;95.31;101443.58;271612;1266;22183;-81
2023/02/07 07:15:34;;;;;;;149.20;62.50;;;;;;;-7.46;95.48;101438.70;273264;1259;23137;-82
2023/02/07 07:21:36;;;;;;;171.10;74.60;;;;;;;-7.36;95.30;101432.50;273203;1270;22575;-81
2023/02/07 07:27:37;;;;;;;171.80;67.40;;;;;;;-7.29;95.36;101425.81;273357;1260;22966;-81
2023/02/07 07:33:39;;;;;;;149.70;57.50;;;;;;;-7.16;95.49;101423.27;273323;1270;22228;-82
2023/02/07 07:39:42;;;;;;;146.60;59.60;;;;;;;-7.11;95.49;101420.77;273230;1259;23852;-81
2023/02/07 07:45:45;;;;;;;148.50;61.50;;;;;;;-7.02;95.65;101423.59;272301;1270;22600;-82
2023/02/07 07:51:47;;;;;;;135.60;55.30;;;;;;;-6.89;95.82;101422.54;271714;1269;22193;-82
2023/02/07 07:57:54;;;;;;;135.60;57.90;;;;;;;-6.79;95.77;101417.80;273304;1270;22356;-82
2023/02/07 08:03:56;;;;;;;124.90;49.60;;;;;;;-6.68;95.85;101410.60;270722;1260;25913;-81
2023/02/07 08:09:58;;;;;;;144.10;57.10;;;;;;;-6.66;95.55;101410.59;269466;1259;22649;-83
2023/02/07 08:16:01;;;;;;;124.90;53.40;;;;;;;-6.52;96.15;101409.98;269474;1261;22586;-81
2023/02/07 08:22:03;;;;;;;127.70;54.80;;;;;;;-6.40;95.99;101406.36;271685;1259;22271;-82
2023/02/07 08:28:05;;;;;;;126.10;52.70;;;;;;;-6.29;96.33;101405.67;273292;1270;22295;-83
2023/02/07 08:34:27;;;;;;;108.60;46.90;;;;;;;-6.08;96.74;101398.11;273656;1259;23177;-82
2023/02/07 08:40:30;;;;;;;136.40;58.30;;;;;;;-5.94;96.73;101399.30;270680;1269;22764;-82
2023/02/07 08:46:32;;;;;;;118.50;49.10;;;;;;;-5.81;96.68;101399.60;269780;1257;24034;-82
2023/02/07 08:52:34;;;;;;;126.20;51.60;;;;;;;-5.77;96.57;101395.70;269719;1263;25412;-82
2023/02/07 08:58:36;;;;;;;123.50;49.00;;;;;;;-5.75;96.61;101392.44;270405;1270;22331;-83
2023/02/07 09:04:40;;;;;;;130.80;55.30;;;;;;;-5.71;96.76;101389.75;272490;1267;22573;-83
2023/02/07 09:10:42;;;;;;;137.90;58.70;;;;;;;-5.52;97.30;101375.16;270358;1260;25520;-82
2023/02/07 09:16:44;;;;;;;154.10;61.90;;;;;;;-5.31;97.57;101373.30;271021;1259;22643;-84
2023/02/07 09:29:07;;;;;;;149.50;65.60;;;;;;;-5.09;97.19;101367.50;270524;1271;84259;-83
2023/02/07 09:35:09;;;;;;;145.00;67.60;;;;;;;-5.07;97.03;101365.05;272290;1270;22357;-83
2023/02/07 09:41:36;;;;;;;167.30;70.50;;;;;;;-5.10;96.70;101367.09;273174;1273;22227;-83
2023/02/07 09:47:45;;;;;;;157.70;70.00;;;;;;;-5.09;96.83;101357.76;273265;1260;22875;-83
2023/02/07 09:53:59;;;;;;;178.80;75.10;;;;;;;-5.02;97.06;101346.85;272902;1270;22448;-83
2023/02/07 10:00:05;;;;;;;176.10;74.90;;;;;;;-4.96;96.84;101348.17;273104;1270;22294;-83
2023/02/07 10:06:18;;;;;;;165.10;71.00;;;;;;;-4.90;97.00;101350.88;273106;1269;22425;-82
2023/02/07 10:12:25;;;;;;;169.00;70.70;;;;;;;-4.80;97.01;101358.32;273410;1268;22219;-84
2023/02/07 10:18:44;;;;;;;187.80;81.70;;;;;;;-4.83;96.72;101361.42;272899;1272;22439;-82
2023/02/07 10:24:58;;;;;;;187.60;79.10;;;;;;;-4.87;96.85;101364.71;272190;1260;22573;-82
2023/02/07 10:31:03;;;;;;;175.60;76.20;;;;;;;-4.84;97.05;101363.48;271538;1270;23204;-82
2023/02/07 10:37:24;;;;;;;179.20;76.00;;;;;;;-4.75;97.26;101362.48;272921;1271;23577;-85
2023/02/07 10:43:28;;;;;;;182.70;74.80;;;;;;;-4.69;97.24;101356.00;272353;1269;22598;-83
2023/02/07 10:49:33;;;;;;;172.70;75.80;;;;;;;-4.61;97.37;101357.38;270289;1270;22667;-82
2023/02/07 10:55:45;;;;;;;186.20;81.70;;;;;;;-4.53;97.37;101359.44;271040;1270;22516;-82
2023/02/07 11:02:32;;;;;;;197.60;87.00;;;;;;;-4.43;97.68;101351.48;271686;1270;22200;-84
2023/02/07 11:08:36;;;;;;;173.10;75.70;;;;;;;-4.26;97.82;101342.77;272284;1269;22322;-83
2023/02/07 11:14:40;;;;;;;160.70;75.60;;;;;;;-4.09;97.80;101349.86;272217;1263;22569;-83
2023/02/07 11:20:51;;;;;;;188.10;81.90;;;;;;;-4.00;97.45;101342.89;269786;1270;22353;-85
2023/02/07 11:27:01;;;;;;;184.40;80.70;;;;;;;-3.94;97.63;101332.95;272709;1270;23215;-84
2023/02/07 11:33:18;;;;;;;194.20;83.20;;;;;;;-3.88;97.74;101321.83;273339;1260;22455;-84
2023/02/07 11:39:21;;;;;;;177.30;80.20;;;;;;;-3.80;97.64;101321.70;273225;1270;22334;-83
2023/02/07 11:45:24;;;;;;;184.60;82.40;;;;;;;-3.72;97.63;101323.77;273335;1270;22385;-84
2023/02/07 11:51:31;;;;;;;181.70;82.40;;;;;;;-3.63;97.81;101318.47;273313;1260;23739;-83
2023/02/07 11:57:53;;;;;;;173.10;74.70;;;;;;;-3.43;98.10;101309.27;272250;1260;22248;-84
2023/02/07 12:04:20;;;;;;;169.40;75.70;;;;;;;-3.27;97.53;101305.95;273377;1270;22306;-83
2023/02/07 12:10:40;;;;;;;161.60;75.90;;;;;;;-3.25;97.21;101299.57;271745;1263;22880;-85
2023/02/07 12:17:02;;;;;;;170.10;75.10;;;;;;;-3.17;97.18;101290.73;270292;1257;23233;-84
2023/02/07 12:23:20;;;;;;;156.40;68.80;;;;;;;-3.05;97.37;101290.27;270769;1270;22575;-84
2023/02/07 12:29:44;;;;;;;160.00;71.00;;;;;;;-3.02;96.94;101284.02;270096;1270;22572;-84
2023/02/07 12:36:02;;;;;;;169.20;72.90;;;;;;;-2.97;97.06;101279.16;269322;1270;22605;-85
2023/02/07 12:42:28;;;;;;;140.30;63.30;;;;;;;-2.91;97.02;101274.80;271967;1260;22377;-85
2023/02/07 12:48:46;;;;;;;144.00;61.20;;;;;;;-2.91;97.14;101275.45;269419;1270;22755;-85
2023/02/07 12:55:27;;;;;;;147.00;61.80;;;;;;;-2.90;97.22;101284.80;269555;1270;22649;-85
2023/02/07 13:01:36;;;;;;;150.10;64.00;;;;;;;-2.86;97.34;101285.15;271134;1270;22393;-86
2023/02/07 13:08:07;;;;;;;158.90;64.10;;;;;;;-2.76;97.48;101289.10;270182;1270;23696;-85
2023/02/07 13:14:28;;;;;;;144.60;62.80;;;;;;;-2.68;97.26;101293.90;269268;1261;22520;-86
2023/02/07 13:20:35;;;;;;;142.20;62.90;;;;;;;-2.70;97.13;101297.16;269188;1270;23182;-85
2023/02/07 13:26:37;;;;;;;146.30;63.40;;;;;;;-2.76;97.05;101297.46;269504;1270;22583;-85
2023/02/07 13:32:39;;;;;;;136.20;59.10;;;;;;;-2.83;96.77;101296.39;269756;1270;22562;-86
2023/02/07 13:39:04;;;;;;;139.20;61.20;;;;;;;-2.89;96.73;101298.52;270441;1257;22553;-85
2023/02/07 13:45:22;;;;;;;146.40;63.70;;;;;;;-2.88;97.08;101299.41;269657;1260;22552;-86
2023/02/07 13:51:25;;;;;;;135.70;60.40;;;;;;;-2.86;97.17;101292.40;269686;1270;23687;-86
2023/02/07 14:04:26;;;;;;;152.80;65.20;;;;;;;-2.83;97.20;101282.01;271050;1270;22663;-87
2023/02/07 14:11:00;;;;;;;152.70;67.90;;;;;;;-2.83;97.12;101278.90;270458;1265;25377;-86
2023/02/07 14:17:26;;;;;;;151.00;65.00;;;;;;;-2.84;97.08;101279.13;270799;1257;22588;-86
2023/02/07 14:23:56;;;;;;;152.20;64.30;;;;;;;-2.90;97.02;101281.66;271856;1270;23919;-86
2023/02/07 14:30:46;;;;;;;166.90;72.30;;;;;;;-2.96;97.02;101282.05;270188;1258;22362;-85
2023/02/07 14:36:48;;;;;;;158.40;68.70;;;;;;;-3.05;96.99;101289.83;272606;1265;23105;-85
2023/02/07 14:43:02;;;;;;;165.40;73.80;;;;;;;-3.09;97.14;101290.48;271059;1270;23309;-85
2023/02/07 14:49:50;;;;;;;172.80;79.30;;;;;;;-3.09;97.18;101293.73;270741;1270;22808;-85
2023/02/07 14:55:54;;;;;;;175.50;74.60;;;;;;;-3.10;97.38;101297.73;271740;1266;22537;-85
2023/02/07 15:01:56;;;;;;;193.20;84.80;;;;;;;-3.10;97.41;101302.56;272234;1270;22388;-85
2023/02/07 15:08:01;;;;;;;176.90;75.70;;;;;;;-3.11;97.48;101306.13;271802;1270;22321;-85
2023/02/07 15:14:04;;;;;;;174.60;79.30;;;;;;;-3.13;97.32;101303.44;273304;1256;22255;-86
2023/02/07 15:20:06;;;;;;;178.60;82.50;;;;;;;-3.19;97.36;101301.48;271641;1270;22323;-84
2023/02/07 15:26:07;;;;;;;163.80;73.00;;;;;;;-3.21;97.71;101298.99;272181;1260;22559;-84
2023/02/07 15:32:21;;;;;;;183.30;79.30;;;;;;;-3.21;97.83;101296.09;270374;1267;24572;-85
2023/02/07 15:38:31;;;;;;;180.90;81.80;;;;;;;-3.18;97.98;101293.52;270528;1266;23141;-85
2023/02/07 15:44:54;;;;;;;191.40;83.60;;;;;;;-3.19;98.02;101299.51;271869;1270;23115;-85
2023/02/07 15:51:02;;;;;;;181.50;79.50;;;;;;;-3.18;98.15;101309.42;271731;1261;22538;-85
2023/02/07 15:57:27;;;;;;;185.70;80.90;;;;;;;-3.21;98.10;101324.16;271313;1259;23629;-85
2023/02/07 16:03:34;;;;;;;193.80;84.30;;;;;;;-3.22;98.27;101330.52;270830;1270;22320;-84
2023/02/07 16:09:40;;;;;;;190.30;84.20;;;;;;;-3.21;98.60;101334.14;272369;1270;22373;-84
2023/02/07 16:15:59;;;;;;;190.30;87.70;;;;;;;-3.19;98.69;101336.69;273097;1259;22341;-84
2023/02/07 16:22:06;;;;;;;164.70;75.70;;;;;;;-3.22;98.50;101344.54;271067;1269;22409;-84
2023/02/07 16:28:24;;;;;;;190.30;79.80;;;;;;;-3.24;98.52;101349.25;273151;1256;23250;-85
2023/02/07 16:34:26;;;;;;;167.80;75.40;;;;;;;-3.24;98.60;101353.55;273631;1259;22162;-85
2023/02/07 16:40:28;;;;;;;187.10;80.40;;;;;;;-3.22;98.69;101356.50;269862;1266;22404;-85
2023/02/07 16:46:30;;;;;;;184.90;80.00;;;;;;;-3.22;98.79;101362.67;271901;1270;23920;-84
2023/02/07 16:52:51;;;;;;;197.40;84.70;;;;;;;-3.22;98.85;101359.90;271093;1267;22560;-84
2023/02/07 16:58:53;;;;;;;188.10;80.40;;;;;;;-3.22;98.91;101356.65;271342;1270;26301;-84
2023/02/07 17:05:03;;;;;;;202.30;88.70;;;;;;;-3.21;98.88;101362.58;273322;1270;22461;-84
2023/02/07 17:11:06;;;;;;;195.80;88.10;;;;;;;-3.19;99.08;101365.61;271858;1270;22974;-85
2023/02/07 17:17:29;;;;;;;198.90;88.30;;;;;;;-3.17;99.22;101366.40;269965;1257;25475;-84
2023/02/07 17:23:30;;;;;;;203.10;92.10;;;;;;;-3.16;99.33;101370.52;269430;1260;22561;-84
2023/02/07 17:29:33;;;;;;;212.70;91.40;;;;;;;-3.18;99.26;101373.88;272923;1270;23655;-84
2023/02/07 17:35:35;;;;;;;204.40;90.30;;;;;;;-3.20;99.07;101383.42;273202;1270;23166;-84
2023/02/07 17:41:38;;;;;;;193.30;85.80;;;;;;;-3.21;99.32;101385.61;273359;1270;22312;-84
2023/02/07 17:47:42;;;;;;;164.00;71.20;;;;;;;-3.18;99.34;101384.61;273351;1270;22347;-84
2023/02/07 17:53:45;;;;;;;201.50;89.10;;;;;;;-3.14;99.43;101388.20;273364;1270;22689;-84
2023/02/07 17:59:46;;;;;;;199.90;87.90;;;;;;;-3.14;99.42;101385.23;273407;1270;23225;-84
2023/02/07 18:05:48;;;;;;;224.40;96.60;;;;;;;-3.14;99.59;101396.56;273421;1270;22184;-84
2023/02/07 18:11:50;;;;;;;212.20;94.80;;;;;;;-3.11;99.60;101398.30;272765;1270;22312;-84
2023/02/07 18:17:52;;;;;;;213.20;92.50;;;;;;;-3.13;99.57;101400.06;273350;1270;22264;-85
2023/02/07 18:23:55;;;;;;;221.80;92.60;;;;;;;-3.15;99.69;101402.60;273375;1270;22393;-84
2023/02/07 18:29:59;;;;;;;203.40;90.00;;;;;;;-3.14;99.71;101412.31;273400;1258;22201;-84
2023/02/07 18:36:00;;;;;;;195.50;86.50;;;;;;;-3.15;99.81;101421.23;273203;1270;22284;-85
2023/02/07 18:42:02;;;;;;;198.00;87.00;;;;;;;-3.15;99.88;101420.53;273079;1269;22553;-84
2023/02/07 18:48:04;;;;;;;211.70;90.40;;;;;;;-3.12;99.79;101420.13;270799;1259;23852;-86
2023/02/07 18:54:06;;;;;;;221.10;93.00;;;;;;;-3.13;99.78;101429.27;271516;1270;22656;-86
2023/02/07 19:00:09;;;;;;;209.90;91.10;;;;;;;-3.13;99.93;101431.27;272407;1258;23220;-84
2023/02/07 19:06:10;;;;;;;194.30;85.30;;;;;;;-3.10;100.00;101422.85;272697;1257;23617;-84
2023/02/07 19:12:13;;;;;;;208.80;88.20;;;;;;;-3.11;99.97;101421.95;273374;1256;23042;-84
2023/02/07 19:18:15;;;;;;;203.90;92.20;;;;;;;-3.11;100.00;101430.73;273363;1259;22357;-84
2023/02/07 19:24:20;;;;;;;243.10;103.00;;;;;;;-3.12;99.96;101437.66;273357;1270;22396;-85
2023/02/07 19:30:22;;;;;;;239.10;103.00;;;;;;;-3.11;100.00;101440.79;273597;1257;23305;-84
2023/02/07 19:36:25;;;;;;;231.90;99.80;;;;;;;-3.08;100.00;101445.86;273527;1260;23385;-85
2023/02/07 19:42:36;;;;;;;217.20;97.40;;;;;;;-3.05;100.00;101453.99;271780;1266;22658;-84
2023/02/07 19:48:38;;;;;;;221.40;99.40;;;;;;;-3.07;100.00;101455.76;270739;1266;22546;-84
2023/02/07 19:54:39;;;;;;;226.90;102.20;;;;;;;-3.07;100.00;101457.39;270199;1270;22496;-84
2023/02/07 20:00:42;;;;;;;243.30;106.40;;;;;;;-3.08;100.00;101459.10;270628;1259;22247;-84
2023/02/07 20:06:43;;;;;;;204.60;89.50;;;;;;;-3.07;100.00;101457.03;271047;1270;22553;-84
2023/02/07 20:12:45;;;;;;;330.20;141.90;;;;;;;-3.12;99.97;101459.77;273419;1260;23216;-84
2023/02/07 20:18:47;;;;;;;226.80;97.70;;;;;;;-3.15;100.00;101457.71;269923;1269;22618;-84
2023/02/07 20:24:49;;;;;;;241.00;103.70;;;;;;;-3.14;100.00;101458.61;270382;1270;23408;-86
2023/02/07 20:30:51;;;;;;;226.00;101.30;;;;;;;-3.17;100.00;101459.59;271182;1270;22398;-84
2023/02/07 20:36:53;;;;;;;233.30;103.20;;;;;;;-3.16;100.00;101466.26;270952;1270;22557;-84
2023/02/07 20:42:55;;;;;;;232.10;101.50;;;;;;;-3.15;100.00;101472.02;270621;1271;22548;-85
2023/02/07 20:48:58;;;;;;;236.10;102.00;;;;;;;-3.16;100.00;101472.55;273382;1271;22343;-85
2023/02/07 20:55:00;;;;;;;225.40;97.00;;;;;;;-3.17;100.00;101464.46;273052;1270;24543;-85
2023/02/07 21:01:09;;;;;;;244.80;105.50;;;;;;;-3.19;100.00;101461.80;273062;1258;22426;-84
2023/02/07 21:07:11;;;;;;;239.50;105.20;;;;;;;-3.18;100.00;101465.90;272969;1269;22587;-85
2023/02/07 21:13:13;;;;;;;234.70;103.50;;;;;;;-3.16;100.00;101464.19;272091;1270;23616;-86
2023/02/07 21:19:19;;;;;;;241.10;105.50;;;;;;;-3.15;100.00;101464.27;273321;1257;22210;-85
2023/02/07 21:25:21;;;;;;;251.10;105.60;;;;;;;-3.13;100.00;101473.58;273085;1270;105532;-86
2023/02/07 21:31:22;;;;;;;248.90;103.00;;;;;;;-3.12;100.00;101483.59;273406;1259;22302;-84
2023/02/07 21:37:24;;;;;;;229.30;99.60;;;;;;;-3.11;100.00;101483.38;271308;1270;22553;-84
2023/02/07 21:43:26;;;;;;;223.30;102.00;;;;;;;-3.14;100.00;101486.48;272899;1259;22408;-84
2023/02/07 21:49:29;;;;;;;231.60;103.20;;;;;;;-3.16;100.00;101485.30;272851;1259;23641;-84
2023/02/07 21:55:31;;;;;;;244.80;110.00;;;;;;;-3.16;100.00;101486.73;273009;1270;22367;-84
2023/02/07 22:01:33;;;;;;;236.10;104.70;;;;;;;-3.14;100.00;101494.26;272870;1270;22749;-84
2023/02/07 22:07:35;;;;;;;243.90;104.70;;;;;;;-3.16;100.00;101493.75;271755;1254;22258;-83
2023/02/07 22:13:39;;;;;;;244.30;106.10;;;;;;;-3.13;100.00;101493.14;271029;1270;22244;-83
2023/02/07 22:19:40;;;;;;;243.80;106.50;;;;;;;-3.08;100.00;101489.32;271614;1259;22552;-83
2023/02/07 22:25:42;;;;;;;246.40;107.90;;;;;;;-3.05;100.00;101490.92;271856;1270;22365;-86
2023/02/07 22:31:44;;;;;;;242.30;104.40;;;;;;;-3.06;100.00;101490.09;269666;1259;22617;-83
2023/02/07 22:37:46;;;;;;;279.90;123.50;;;;;;;-3.10;100.00;101489.10;268905;1257;22243;-84
2023/02/07 22:43:55;;;;;;;266.20;112.30;;;;;;;-3.12;100.00;101490.77;269451;1260;25506;-83
2023/02/07 22:49:57;;;;;;;257.80;113.30;;;;;;;-3.11;100.00;101485.60;269991;1270;22335;-84
2023/02/07 22:56:00;;;;;;;256.80;107.20;;;;;;;-3.11;100.00;101480.48;272407;1264;23801;-83
2023/02/07 23:02:02;;;;;;;254.70;110.20;;;;;;;-3.10;100.00;101483.11;270275;1259;22308;-85
2023/02/07 23:08:24;;;;;;;257.50;109.50;;;;;;;-3.08;100.00;101485.15;269565;1270;22517;-84
2023/02/07 23:14:28;;;;;;;250.80;107.20;;;;;;;-3.07;100.00;101482.17;270365;1270;22582;-83
2023/02/07 23:20:49;;;;;;;225.90;99.60;;;;;;;-3.10;100.00;101478.16;269551;1260;23722;-83
2023/02/07 23:26:52;;;;;;;244.00;105.10;;;;;;;-3.13;100.00;101483.98;270541;1270;22528;-83
2023/02/07 23:32:54;;;;;;;230.60;100.50;;;;;;;-3.11;100.00;101477.48;269874;1270;23875;-83
2023/02/07 23:38:55;;;;;;;242.80;104.50;;;;;;;-3.12;100.00;101472.91;271705;1270;23094;-83
2023/02/07 23:45:01;;;;;;;213.60;93.10;;;;;;;-3.12;100.00;101478.66;273762;1271;22307;-83
2023/02/07 23:51:03;;;;;;;235.40;103.10;;;;;;;-3.15;100.00;101482.16;272511;1258;22590;-83
2023/02/07 23:57:05;;;;;;;243.90;103.30;;;;;;;-3.15;100.00;101481.36;269675;1261;22610;-83
